Time;durP1;ratioP1;P1;durP2;ratioP2;P2;SDS_P1;SDS_P2;PMS_P1;PMS_P2;Temp;Humidity;BMP_temperature;BMP_pressure;BME280_temperature;BME280_humidity;BME280_pressure;Samples;Min_cycle;Max_cycle;Signal;HPM_P1;HPM_P2
2021/11/23 00:00:50;;;;;;;18.05;13.75;;;8.70;94.20;;;;;;5023863;28;20045;-79
2021/11/23 00:03:18;;;;;;;18.75;13.43;;;8.70;94.20;;;;;;5019672;28;20041;-77
2021/11/23 00:05:46;;;;;;;15.23;13.07;;;8.70;94.20;;;;;;5028571;28;20049;-79
2021/11/23 00:08:14;;;;;;;19.08;13.35;;;8.70;94.20;;;;;;5031990;28;20053;-80
2021/11/23 00:10:43;;;;;;;21.55;16.27;;;8.70;94.20;;;;;;5034624;28;20060;-79
2021/11/23 00:13:12;;;;;;;18.95;15.95;;;8.60;94.20;;;;;;5014005;28;20068;-80
2021/11/23 00:15:39;;;;;;;21.30;14.07;;;8.70;94.20;;;;;;5036773;28;20099;-79
2021/11/23 00:18:12;;;;;;;17.98;14.40;;;8.60;94.10;;;;;;5031241;28;20060;-79
2021/11/23 00:20:42;;;;;;;19.60;15.93;;;8.60;94.10;;;;;;5022837;28;20052;-80
2021/11/23 00:23:11;;;;;;;19.33;15.07;;;8.60;94.60;;;;;;5031842;28;20405;-81
2021/11/23 00:25:38;;;;;;;18.92;15.05;;;8.60;94.20;;;;;;5018980;28;20068;-79
2021/11/23 00:28:05;;;;;;;21.08;17.67;;;8.60;94.20;;;;;;5029158;28;20049;-77
2021/11/23 00:30:32;;;;;;;18.17;14.63;;;8.60;94.20;;;;;;5029480;28;20489;-81
2021/11/23 00:33:00;;;;;;;19.58;15.52;;;8.60;94.20;;;;;;5014515;28;20058;-80
2021/11/23 00:35:28;;;;;;;17.58;14.68;;;8.60;94.30;;;;;;5027515;28;20077;-77
2021/11/23 00:37:56;;;;;;;17.35;15.05;;;8.60;94.20;;;;;;5021284;28;20049;-82
2021/11/23 00:40:24;;;;;;;18.15;14.32;;;8.60;94.30;;;;;;5017255;28;20046;-79
2021/11/23 00:42:51;;;;;;;16.27;14.35;;;8.60;94.20;;;;;;5023229;28;20052;-81
2021/11/23 00:45:18;;;;;;;18.73;14.32;;;8.60;94.20;;;;;;5016815;28;20041;-79
2021/11/23 00:47:46;;;;;;;19.38;14.82;;;8.60;94.20;;;;;;5020632;28;20056;-81
2021/11/23 00:50:15;;;;;;;18.50;15.65;;;8.60;94.20;;;;;;5031461;28;20477;-79
2021/11/23 00:52:44;;;;;;;18.60;15.20;;;8.60;94.20;;;;;;5027229;28;20054;-77
2021/11/23 00:55:12;;;;;;;20.85;15.77;;;8.60;94.20;;;;;;5029181;28;20108;-79
2021/11/23 00:57:40;;;;;;;20.67;16.23;;;8.60;94.20;;;;;;5024990;28;20394;-77
2021/11/23 01:00:09;;;;;;;18.58;15.48;;;8.60;94.20;;;;;;5020158;28;20232;-82
2021/11/23 01:02:37;;;;;;;20.52;17.25;;;8.60;94.20;;;;;;5029151;28;20041;-80
2021/11/23 01:05:05;;;;;;;19.63;15.20;;;8.60;94.40;;;;;;5029160;28;20099;-80
2021/11/23 01:07:32;;;;;;;23.02;17.35;;;8.60;94.50;;;;;;5029042;28;20042;-81
2021/11/23 01:10:00;;;;;;;20.55;16.50;;;8.60;94.60;;;;;;5033793;28;20057;-82
2021/11/23 01:12:27;;;;;;;19.75;16.30;;;8.60;94.50;;;;;;5034019;28;20672;-82
2021/11/23 01:14:54;;;;;;;19.55;15.82;;;8.60;94.60;;;;;;5033728;28;20508;-77
2021/11/23 01:17:21;;;;;;;21.65;16.73;;;8.60;94.60;;;;;;5034230;28;20049;-81
2021/11/23 01:19:49;;;;;;;;;;;8.60;94.80;;;;;;5029610;28;20742;-80
2021/11/23 01:22:16;;;;;;;;;;;8.60;94.80;;;;;;5023033;28;19979;-77
2021/11/23 01:24:43;;;;;;;;;;;8.60;94.90;;;;;;5019372;28;20457;-80
2021/11/23 01:27:09;;;;;;;;;;;8.60;95.00;;;;;;5018888;28;19921;-82
2021/11/23 01:29:36;;;;;;;;;;;8.60;94.90;;;;;;5016562;28;19921;-80
2021/11/23 01:32:03;;;;;;;;;;;8.60;94.90;;;;;;5028969;28;19921;-79
2021/11/23 01:34:31;;;;;;;;;;;8.60;95.00;;;;;;5024639;28;20270;-80
2021/11/23 01:36:58;;;;;;;;;;;8.60;95.00;;;;;;5030264;28;19921;-79
2021/11/23 01:39:25;;;;;;;;;;;8.60;95.00;;;;;;5013341;28;19922;-77
2021/11/23 01:41:53;;;;;;;;;;;8.60;95.00;;;;;;5013508;28;19922;-80
2021/11/23 01:44:20;;;;;;;;;;;8.60;94.90;;;;;;5030055;28;20284;-80
2021/11/23 01:46:47;;;;;;;;;;;8.60;94.90;;;;;;5020265;28;19921;-80
2021/11/23 01:49:14;;;;;;;;;;;8.60;94.90;;;;;;5018767;28;19921;-77
2021/11/23 01:51:41;;;;;;;;;;;8.60;94.80;;;;;;5030715;28;19921;-80
2021/11/23 01:54:08;;;;;;;;;;;8.70;94.90;;;;;;5028261;28;20388;-77
2021/11/23 01:56:35;;;;;;;;;;;8.70;95.40;;;;;;5017310;28;19921;-77
2021/11/23 01:59:02;;;;;;;;;;;8.60;95.00;;;;;;5030267;28;20392;-77
2021/11/23 02:01:29;;;;;;;;;;;8.60;95.00;;;;;;5027802;28;19932;-81
2021/11/23 02:03:56;;;;;;;;;;;8.60;95.10;;;;;;5021255;28;19921;-79
2021/11/23 02:06:23;;;;;;;;;;;8.60;95.20;;;;;;5024959;28;19925;-79
2021/11/23 02:08:50;;;;;;;;;;;8.60;95.20;;;;;;5027147;28;19921;-83
2021/11/23 02:11:17;;;;;;;;;;;8.60;95.20;;;;;;5027573;28;19921;-82
2021/11/23 02:13:44;;;;;;;;;;;8.60;95.20;;;;;;5023120;28;19925;-78
2021/11/23 02:16:11;;;;;;;;;;;8.50;95.30;;;;;;5037407;28;19925;-79
2021/11/23 02:18:38;;;;;;;;;;;8.50;95.20;;;;;;5021761;28;19929;-78
2021/11/23 02:21:05;;;;;;;;;;;8.50;95.30;;;;;;5019869;28;19971;-76
2021/11/23 02:23:32;;;;;;;;;;;8.50;95.30;;;;;;5019005;28;20012;-80
2021/11/23 02:25:59;;;;;;;;;;;8.50;95.30;;;;;;5013403;28;19926;-83
2021/11/23 02:28:26;;;;;;;;;;;8.50;95.30;;;;;;5015405;28;20361;-80
2021/11/23 02:30:54;;;;;;;;;;;8.50;95.30;;;;;;5015459;28;19980;-80
2021/11/23 02:33:23;;;;;;;;;;;8.50;95.30;;;;;;5018235;28;19975;-80
2021/11/23 02:35:52;;;;;;;;;;;8.50;95.30;;;;;;5018931;28;20336;-79
2021/11/23 02:38:20;;;;;;;;;;;8.60;95.30;;;;;;5028835;28;19925;-78
2021/11/23 02:40:47;;;;;;;;;;;8.60;95.30;;;;;;5029651;28;19927;-79
2021/11/23 02:43:15;;;;;;;;;;;8.60;95.30;;;;;;5029769;28;19925;-76
2021/11/23 02:45:43;;;;;;;;;;;8.60;95.30;;;;;;5027961;28;19928;-84
2021/11/23 02:48:12;;;;;;;;;;;8.60;95.30;;;;;;5017544;28;19921;-80
2021/11/23 02:50:42;;;;;;;;;;;8.60;95.30;;;;;;5025275;28;19921;-77
2021/11/23 02:53:09;;;;;;;;;;;8.60;95.30;;;;;;5032304;28;19932;-77
2021/11/23 02:55:36;;;;;;;;;;;8.60;95.20;;;;;;5029014;28;19921;-79
2021/11/23 02:58:05;;;;;;;;;;;8.60;95.20;;;;;;5022441;28;19980;-79
2021/11/23 03:00:33;;;;;;;;;;;8.70;95.30;;;;;;5022919;28;20389;-79
2021/11/23 03:03:00;;;;;;;;;;;8.60;95.20;;;;;;5028682;28;19932;-80
2021/11/23 03:05:27;;;;;;;;;;;8.70;95.30;;;;;;5032488;28;19920;-79
2021/11/23 03:07:54;;;;;;;;;;;8.70;95.30;;;;;;5032553;28;20361;-78
2021/11/23 03:10:24;;;;;;;;;;;8.70;95.30;;;;;;5014389;28;20018;-80
2021/11/23 03:12:52;;;;;;;;;;;8.80;95.40;;;;;;5016345;28;19921;-77
2021/11/23 03:15:19;;;;;;;;;;;8.80;95.20;;;;;;5030864;28;19925;-83
2021/11/23 03:17:46;;;;;;;;;;;8.90;95.10;;;;;;5039046;28;19920;-80
2021/11/23 03:20:14;;;;;;;;;;;9.00;94.80;;;;;;5036365;28;19921;-80
2021/11/23 03:22:41;;;;;;;;;;;9.10;94.60;;;;;;5023637;28;19928;-82
2021/11/23 03:25:08;;;;;;;;;;;9.10;94.50;;;;;;5036166;28;20335;-79
2021/11/23 03:27:35;;;;;;;;;;;9.10;94.30;;;;;;5031310;28;19975;-79
2021/11/23 03:30:06;;;;;;;;;;;9.10;94.10;;;;;;5027102;28;20316;-78
2021/11/23 03:32:33;;;;;;;;;;;9.20;94.00;;;;;;5020460;28;19973;-82
2021/11/23 03:35:00;;;;;;;;;;;9.20;93.80;;;;;;5024907;28;19932;-79
2021/11/23 03:37:27;;;;;;;;;;;9.20;93.60;;;;;;5035719;28;19921;-83
2021/11/23 03:39:54;;;;;;;1.92;1.23;;;9.20;93.20;;;;;;5027992;28;19940;-83
2021/11/23 03:42:22;;;;;;;2.42;1.70;;;9.30;93.40;;;;;;5029625;28;20493;-83
2021/11/23 03:44:49;;;;;;;2.92;1.90;;;9.30;93.40;;;;;;5020143;28;20797;-80
2021/11/23 03:47:19;;;;;;;1.80;1.60;;;9.20;93.50;;;;;;5034343;28;20406;-79
2021/11/23 03:49:46;;;;;;;1.90;1.65;;;9.30;93.50;;;;;;5028254;28;20431;-78
2021/11/23 03:52:14;;;;;;;2.63;1.75;;;9.30;93.30;;;;;;5029429;28;20410;-82
2021/11/23 03:54:41;;;;;;;2.10;1.63;;;9.30;93.30;;;;;;5017797;28;20474;-77
2021/11/23 03:57:09;;;;;;;2.55;2.30;;;9.40;93.30;;;;;;5025632;28;20916;-79
2021/11/23 03:59:36;;;;;;;3.00;2.33;;;9.40;92.60;;;;;;5029668;28;20428;-79
2021/11/23 04:02:03;;;;;;;3.07;2.30;;;9.50;92.70;;;;;;5013976;28;20484;-81
2021/11/23 04:04:32;;;;;;;2.35;1.73;;;9.50;92.50;;;;;;5015479;28;20456;-78
2021/11/23 04:06:59;;;;;;;2.70;1.85;;;9.50;92.20;;;;;;5014590;28;20492;-80
2021/11/23 04:09:26;;;;;;;2.08;1.40;;;9.60;92.10;;;;;;5014180;28;20896;-80
2021/11/23 04:11:53;;;;;;;2.33;1.20;;;9.60;91.70;;;;;;5030992;28;20817;-76
2021/11/23 04:14:20;;;;;;;1.20;1.00;;;9.70;91.50;;;;;;5031417;28;20425;-80
2021/11/23 04:16:47;;;;;;;1.77;1.07;;;9.70;91.40;;;;;;5032742;28;20771;-80
2021/11/23 04:19:14;;;;;;;2.75;2.20;;;9.70;91.10;;;;;;5040593;28;20886;-80
2021/11/23 04:21:41;;;;;;;2.83;2.13;;;9.70;90.50;;;;;;5016539;28;20400;-81
2021/11/23 04:24:09;;;;;;;2.85;1.35;;;9.70;90.50;;;;;;5023790;28;20773;-76
2021/11/23 04:26:36;;;;;;;2.08;1.05;;;9.80;90.20;;;;;;5025769;28;20414;-79
2021/11/23 04:29:03;;;;;;;2.45;1.45;;;9.80;90.10;;;;;;5016284;28;20404;-77
2021/11/23 04:31:30;;;;;;;1.95;1.10;;;9.80;90.30;;;;;;5024682;28;20479;-80
2021/11/23 04:33:57;;;;;;;2.70;1.30;;;9.80;90.50;;;;;;5022627;28;20410;-79
2021/11/23 04:36:24;;;;;;;1.60;1.20;;;9.80;88.70;;;;;;5028959;28;20445;-79
2021/11/23 04:38:51;;;;;;;3.70;1.40;;;9.80;88.30;;;;;;5023101;28;20910;-80
2021/11/23 04:41:18;;;;;;;1.80;1.10;;;9.80;87.90;;;;;;5024506;28;20422;-79
2021/11/23 04:43:45;;;;;;;1.92;1.10;;;9.90;86.30;;;;;;5029272;28;20423;-80
2021/11/23 04:46:12;;;;;;;1.63;1.10;;;9.90;87.00;;;;;;5025193;28;20797;-80
2021/11/23 04:48:39;;;;;;;1.27;0.98;;;9.80;85.90;;;;;;5030654;28;20398;-79
2021/11/23 04:51:06;;;;;;;2.17;1.10;;;9.80;85.80;;;;;;5017844;28;20404;-78
2021/11/23 04:53:33;;;;;;;1.63;1.25;;;9.80;86.40;;;;;;5021398;28;20405;-76
2021/11/23 04:56:02;;;;;;;1.67;1.40;;;9.70;87.10;;;;;;5013749;28;20411;-80
2021/11/23 04:58:32;;;;;;;1.42;0.95;;;9.70;86.60;;;;;;5018182;28;20407;-76
2021/11/23 05:01:00;;;;;;;1.42;1.00;;;9.60;86.20;;;;;;5023976;28;20460;-81
2021/11/23 05:03:27;;;;;;;1.98;1.00;;;9.60;85.70;;;;;;5026728;28;20433;-80
2021/11/23 05:05:54;;;;;;;1.10;0.90;;;9.60;85.10;;;;;;5022650;28;20844;-80
2021/11/23 05:08:21;;;;;;;4.18;1.10;;;9.60;84.20;;;;;;5018478;28;20458;-78
2021/11/23 05:10:48;;;;;;;2.33;1.10;;;9.60;83.60;;;;;;5032046;28;20463;-76
2021/11/23 05:13:15;;;;;;;1.58;1.10;;;9.60;83.20;;;;;;5019019;28;20404;-80
2021/11/23 05:15:42;;;;;;;2.05;1.10;;;9.60;83.90;;;;;;5021578;28;20474;-76
2021/11/23 05:18:09;;;;;;;1.45;1.00;;;9.60;84.50;;;;;;5027679;28;20470;-80
2021/11/23 05:20:36;;;;;;;2.00;1.15;;;9.50;84.50;;;;;;5032141;28;20402;-78
2021/11/23 05:23:03;;;;;;;1.58;1.10;;;9.50;85.20;;;;;;5029467;28;20472;-78
2021/11/23 05:25:30;;;;;;;2.33;1.10;;;9.40;84.50;;;;;;5030834;28;20402;-76
2021/11/23 05:27:57;;;;;;;1.60;1.20;;;9.40;85.00;;;;;;5031080;28;20460;-78
2021/11/23 05:30:24;;;;;;;4.20;1.40;;;9.40;84.40;;;;;;5028330;28;20903;-79
2021/11/23 05:32:52;;;;;;;1.33;1.00;;;9.40;84.70;;;;;;5029582;28;20406;-82
2021/11/23 05:35:20;;;;;;;2.20;1.15;;;9.40;84.70;;;;;;5028835;28;20402;-80
2021/11/23 05:37:47;;;;;;;2.03;1.08;;;9.30;84.50;;;;;;5017856;28;20461;-81
2021/11/23 05:40:14;;;;;;;1.67;1.20;;;9.30;85.50;;;;;;5017196;28;20526;-79
2021/11/23 05:42:41;;;;;;;1.63;1.25;;;9.20;85.10;;;;;;5028977;28;20415;-79
2021/11/23 05:45:11;;;;;;;1.55;1.00;;;9.10;86.30;;;;;;5021123;28;21097;-80
2021/11/23 05:47:39;;;;;;;;;;;9.10;85.70;;;;;;5019911;28;20128;-80
2021/11/23 05:50:09;;;;;;;;;;;9.10;83.80;;;;;;5029495;28;19925;-83
2021/11/23 05:52:36;;;;;;;;;;;9.10;85.40;;;;;;5014955;28;20277;-83
2021/11/23 05:55:03;;;;;;;;;;;9.00;86.10;;;;;;5015744;28;19928;-79
2021/11/23 05:57:30;;;;;;;;;;;8.90;87.50;;;;;;5021082;28;19930;-80
2021/11/23 05:59:57;;;;;;;;;;;8.90;86.40;;;;;;5013826;28;19922;-77
2021/11/23 06:02:24;;;;;;;;;;;8.90;86.40;;;;;;5019970;28;19921;-79
2021/11/23 06:04:51;;;;;;;;;;;8.80;88.50;;;;;;5013163;28;19922;-77
2021/11/23 06:07:17;;;;;;;;;;;8.60;89.60;;;;;;5023367;28;19921;-83
2021/11/23 06:09:44;;;;;;;;;;;8.60;89.90;;;;;;5030018;28;20396;-84
2021/11/23 06:12:11;;;;;;;;;;;8.60;90.10;;;;;;5019688;28;19925;-79
2021/11/23 06:14:39;;;;;;;;;;;8.60;90.10;;;;;;5021788;28;20411;-84
2021/11/23 06:17:09;;;;;;;1.60;0.70;;;8.50;90.20;;;;;;5018488;28;19921;-84
2021/11/23 06:19:36;;;;;;;1.52;1.40;;;8.50;90.10;;;;;;5033402;28;20100;-76
2021/11/23 06:22:05;;;;;;;2.50;1.48;;;8.50;90.20;;;;;;5027714;28;20069;-85
2021/11/23 06:24:33;;;;;;;2.95;1.48;;;8.50;90.10;;;;;;5012455;28;20054;-85
2021/11/23 06:27:00;;;;;;;2.42;1.55;;;8.50;90.20;;;;;;5018457;28;20050;-86
2021/11/23 06:29:27;;;;;;;3.95;1.10;;;8.40;90.40;;;;;;5041967;28;20053;-77
2021/11/23 06:31:54;;;;;;;1.75;1.20;;;8.40;89.80;;;;;;5028344;28;20397;-78
2021/11/23 06:34:21;;;;;;;1.98;1.38;;;8.40;89.00;;;;;;5025132;28;20412;-85
2021/11/23 06:36:48;;;;;;;1.63;1.00;;;8.40;89.50;;;;;;5025717;28;20398;-79
2021/11/23 06:39:15;;;;;;;1.33;0.90;;;8.40;88.60;;;;;;5027782;28;20406;-82
2021/11/23 06:41:42;;;;;;;2.28;0.95;;;8.40;88.80;;;;;;5030216;28;20948;-77
2021/11/23 06:44:09;;;;;;;1.70;0.93;;;8.50;88.70;;;;;;5042497;28;20432;-79
2021/11/23 06:46:36;;;;;;;1.60;0.90;;;8.40;89.00;;;;;;5029792;28;20805;-78
2021/11/23 06:49:04;;;;;;;2.05;0.70;;;8.40;90.00;;;;;;5020697;28;20439;-79
2021/11/23 06:51:31;;;;;;;1.40;1.10;;;8.40;90.00;;;;;;5025777;28;20885;-80
2021/11/23 06:53:58;;;;;;;2.50;1.10;;;8.40;90.10;;;;;;5029136;28;20402;-85
2021/11/23 06:56:25;;;;;;;1.95;0.93;;;8.40;90.20;;;;;;5017216;28;20420;-84
2021/11/23 06:58:55;;;;;;;1.40;1.10;;;8.40;90.10;;;;;;5016396;28;20416;-77
2021/11/23 07:01:23;;;;;;;1.40;0.90;;;8.40;90.20;;;;;;5034745;28;20420;-84
2021/11/23 07:03:51;;;;;;;1.23;0.88;;;8.40;90.30;;;;;;5033650;28;20424;-77
2021/11/23 07:06:18;;;;;;;1.00;0.80;;;8.40;90.30;;;;;;5033336;28;20916;-79
2021/11/23 07:08:45;;;;;;;1.92;1.00;;;8.40;90.30;;;;;;5035778;28;20463;-80
2021/11/23 07:11:13;;;;;;;1.50;1.17;;;8.50;90.50;;;;;;5034830;28;20402;-79
2021/11/23 07:13:41;;;;;;;3.15;1.30;;;8.50;90.70;;;;;;5031888;28;20410;-78
2021/11/23 07:16:08;;;;;;;2.65;1.80;;;8.40;91.10;;;;;;5020640;28;20404;-78
2021/11/23 07:18:39;;;;;;;3.13;1.48;;;8.40;91.20;;;;;;5027467;28;20402;-77
2021/11/23 07:21:06;;;;;;;3.25;1.80;;;8.20;91.20;;;;;;5015088;28;20400;-79
2021/11/23 07:23:54;;;;;;;1.60;1.23;;;8.20;91.00;;;;;;5018104;28;20963;-86
2021/11/23 07:26:21;;;;;;;2.55;1.83;;;8.20;91.00;;;;;;5028657;28;20407;-79
2021/11/23 07:28:48;;;;;;;2.50;2.00;;;8.20;91.40;;;;;;5017405;28;20404;-79
2021/11/23 07:31:15;;;;;;;2.28;1.25;;;8.20;90.80;;;;;;5017915;28;20419;-79
2021/11/23 07:33:42;;;;;;;2.67;1.27;;;8.20;90.20;;;;;;5016886;28;20420;-80
2021/11/23 07:36:09;;;;;;;3.80;2.90;;;8.20;90.40;;;;;;5030985;28;20456;-79
2021/11/23 07:38:36;;;;;;;6.68;4.90;;;8.20;91.00;;;;;;5030081;28;20411;-79
2021/11/23 07:41:03;;;;;;;3.53;1.80;;;8.10;91.20;;;;;;5023597;28;20876;-84
2021/11/23 07:43:30;;;;;;;2.72;2.00;;;8.20;91.00;;;;;;5030075;28;20490;-79
2021/11/23 07:45:57;;;;;;;2.75;2.30;;;8.20;91.00;;;;;;5033530;28;20394;-76
2021/11/23 07:48:24;;;;;;;5.40;4.37;;;8.30;90.80;;;;;;5029776;28;20399;-77
2021/11/23 07:50:51;;;;;;;3.08;2.08;;;8.40;90.30;;;;;;5028599;28;20368;-82
2021/11/23 07:53:18;;;;;;;;;;;8.40;90.60;;;;;;5016240;28;20042;-80
2021/11/23 07:55:49;;;;;;;;;;;8.40;90.30;;;;;;5017177;28;20254;-77
2021/11/23 07:58:16;;;;;;;;;;;8.30;90.90;;;;;;5033788;28;19921;-82
2021/11/23 08:00:44;;;;;;;;;;;8.30;90.90;;;;;;5033786;28;19925;-81
2021/11/23 08:03:11;;;;;;;;;;;8.30;90.80;;;;;;5029421;28;19967;-79
2021/11/23 08:05:39;;;;;;;;;;;8.30;90.90;;;;;;5032937;28;19928;-81
2021/11/23 08:08:07;;;;;;;;;;;8.30;91.10;;;;;;5033494;28;19921;-77
2021/11/23 08:10:33;;;;;;;;;;;8.30;91.50;;;;;;5021783;28;19951;-79
2021/11/23 08:13:00;;;;;;;;;;;8.30;90.40;;;;;;5022079;28;20041;-81
2021/11/23 08:15:28;;;;;;;;;;;8.30;90.80;;;;;;5024253;28;19925;-78
2021/11/23 08:17:55;;;;;;;;;;;8.40;90.20;;;;;;5023623;28;20392;-81
2021/11/23 08:20:22;;;;;;;;;;;8.40;90.20;;;;;;5019664;28;19928;-79
2021/11/23 08:22:51;;;;;;;;;;;8.40;88.20;;;;;;5036021;28;19925;-82
2021/11/23 08:25:18;;;;;;;;;;;8.50;86.30;;;;;;5017702;28;19972;-78
2021/11/23 08:27:45;;;;;;;;;;;8.50;87.50;;;;;;5021670;28;19921;-76
2021/11/23 08:30:12;;;;;;;;;;;8.50;87.00;;;;;;5019431;28;19921;-77
2021/11/23 08:32:39;;;;;;;;;;;8.60;87.20;;;;;;5015003;28;19929;-76
2021/11/23 08:35:06;;;;;;;;;;;8.60;87.60;;;;;;5028222;28;19967;-79
2021/11/23 08:37:33;;;;;;;;;;;8.60;87.10;;;;;;5034399;28;19925;-78
2021/11/23 08:40:00;;;;;;;;;;;8.50;88.70;;;;;;5021600;28;19925;-81
2021/11/23 08:42:27;;;;;;;;;;;8.60;88.90;;;;;;5030529;28;19929;-79
2021/11/23 08:44:55;;;;;;;;;;;8.60;89.10;;;;;;5023431;28;19925;-81
2021/11/23 08:47:22;;;;;;;;;;;8.60;89.30;;;;;;5019514;28;19971;-81
2021/11/23 08:49:49;;;;;;;;;;;8.50;89.50;;;;;;5034784;28;19921;-79
2021/11/23 08:52:17;;;;;;;;;;;8.50;89.40;;;;;;5031328;28;19928;-76
2021/11/23 08:54:47;;;;;;;;;;;8.60;90.00;;;;;;5017744;28;19925;-79
2021/11/23 08:57:14;;;;;;;;;;;8.60;90.10;;;;;;5026053;28;19922;-78
2021/11/23 08:59:43;;;;;;;;;;;8.60;90.40;;;;;;5015351;28;20275;-78
2021/11/23 09:02:11;;;;;;;;;;;8.60;90.40;;;;;;5033694;28;19928;-77
2021/11/23 09:04:43;;;;;;;;;;;8.60;90.60;;;;;;5031629;28;19925;-82
2021/11/23 09:07:12;;;;;;;;;;;8.60;91.10;;;;;;5033309;28;19925;-79
2021/11/23 09:09:42;;;;;;;;;;;8.60;91.30;;;;;;5021045;28;19936;-79
2021/11/23 09:12:14;;;;;;;;;;;8.60;90.30;;;;;;5020094;28;19971;-79
2021/11/23 09:14:41;;;;;;;;;;;8.60;87.00;;;;;;5027219;28;20024;-79
2021/11/23 09:17:09;;;;;;;;;;;8.70;88.90;;;;;;5020330;28;19921;-76
2021/11/23 09:19:36;;;;;;;;;;;8.70;90.30;;;;;;5022550;28;19968;-79
2021/11/23 09:22:03;;;;;;;;;;;8.70;90.60;;;;;;5030566;28;20420;-82
2021/11/23 09:24:31;;;;;;;;;;;8.70;90.30;;;;;;5029163;28;20015;-76
2021/11/23 09:26:59;;;;;;;;;;;8.70;90.00;;;;;;5029473;28;20447;-79
2021/11/23 09:29:26;;;;;;;;;;;8.80;90.30;;;;;;5028989;28;19928;-78
2021/11/23 09:31:52;;;;;;;;;;;8.80;90.40;;;;;;5033774;28;19921;-78
2021/11/23 09:34:23;;;;;;;;;;;8.80;90.20;;;;;;5023627;28;20026;-78
2021/11/23 09:36:54;;;;;;;;;;;8.90;88.90;;;;;;5021751;28;19920;-78
2021/11/23 09:39:22;;;;;;;;;;;8.90;89.00;;;;;;5028088;28;19932;-79
2021/11/23 09:41:49;;;;;;;;;;;8.90;90.10;;;;;;5029622;28;20413;-79
2021/11/23 09:44:16;;;;;;;;;;;8.90;90.30;;;;;;5018804;28;19928;-82
2021/11/23 09:46:43;;;;;;;;;;;8.90;90.80;;;;;;5015065;28;19921;-82
2021/11/23 09:49:10;;;;;;;;;;;8.90;90.80;;;;;;5023109;28;19921;-79
2021/11/23 09:51:37;;;;;;;;;;;8.90;90.90;;;;;;5027477;28;19921;-78
2021/11/23 09:54:05;;;;;;;;;;;8.90;91.00;;;;;;5014689;28;19925;-78
2021/11/23 09:56:32;;;;;;;;;;;8.90;91.00;;;;;;5033151;28;19925;-78
2021/11/23 09:58:59;;;;;;;;;;;8.90;90.90;;;;;;5019212;28;19995;-78
2021/11/23 10:01:28;;;;;;;;;;;9.00;91.00;;;;;;5019197;28;20361;-78
2021/11/23 10:03:57;;;;;;;;;;;9.00;91.00;;;;;;5033237;28;20281;-78
2021/11/23 10:06:25;;;;;;;;;;;9.00;90.90;;;;;;5029604;28;19929;-78
2021/11/23 10:08:54;;;;;;;;;;;9.00;91.30;;;;;;5026438;28;19928;-76
2021/11/23 10:11:26;;;;;;;;;;;9.10;90.80;;;;;;5026316;28;19925;-79
2021/11/23 10:13:55;;;;;;;;;;;9.10;90.70;;;;;;5032642;28;19967;-78
2021/11/23 10:16:22;;;;;;;;;;;9.20;91.00;;;;;;5020678;28;19921;-78
2021/11/23 10:18:51;;;;;;;;;;;9.20;89.30;;;;;;5018577;28;19921;-82
2021/11/23 10:21:19;;;;;;;;;;;9.20;89.90;;;;;;5028812;28;19921;-78
2021/11/23 10:23:48;;;;;;;;;;;9.30;90.50;;;;;;5029073;28;19921;-76
2021/11/23 10:26:16;;;;;;;;;;;9.30;90.80;;;;;;5019189;28;19932;-76
2021/11/23 10:28:55;;;;;;;;;;;9.30;90.70;;;;;;5017834;28;19928;-76
2021/11/23 10:31:23;;;;;;;;;;;9.40;90.80;;;;;;5032975;28;20458;-78
2021/11/23 10:34:01;;;;;;;;;;;9.40;91.10;;;;;;5028725;28;19925;-78
2021/11/23 10:36:35;;;;;;;;;;;9.50;90.80;;;;;;5019267;28;19972;-77
2021/11/23 10:39:22;;;;;;;;;;;9.50;90.80;;;;;;5020072;28;19921;-77
2021/11/23 10:41:50;;;;;;;;;;;9.50;90.70;;;;;;5024801;28;19921;-76
2021/11/23 10:44:20;;;;;;;;;;;9.60;90.80;;;;;;5027895;28;19929;-80
2021/11/23 10:46:54;;;;;;;;;;;9.60;90.70;;;;;;5023407;28;19967;-78
2021/11/23 10:49:32;;;;;;;;;;;9.60;90.60;;;;;;5029476;28;19925;-79
2021/11/23 10:52:00;;;;;;;;;;;9.70;90.40;;;;;;5023173;28;19925;-77
2021/11/23 10:54:32;;;;;;;;;;;9.60;90.30;;;;;;5027498;28;19925;-75
2021/11/23 10:57:04;;;;;;;;;;;9.60;90.50;;;;;;5021831;28;20341;-78
2021/11/23 10:59:37;;;;;;;;;;;9.70;90.70;;;;;;5028902;28;19925;-76
2021/11/23 11:02:04;;;;;;;;;;;9.70;90.60;;;;;;5029242;28;19921;-79
2021/11/23 11:04:44;;;;;;;;;;;9.70;90.50;;;;;;5026961;28;19968;-78
2021/11/23 11:07:11;;;;;;;;;;;9.70;90.30;;;;;;5015380;28;19968;-79
2021/11/23 11:09:39;;;;;;;;;;;9.70;90.40;;;;;;5032404;28;19921;-80
2021/11/23 11:12:06;;;;;;;;;;;9.80;90.50;;;;;;5013177;28;19971;-80
2021/11/23 11:14:37;;;;;;;;;;;9.80;90.60;;;;;;5030074;28;19971;-79
2021/11/23 11:17:05;;;;;;;;;;;9.80;90.70;;;;;;5025804;28;19972;-80
2021/11/23 11:19:43;;;;;;;;;;;9.90;90.60;;;;;;5027127;28;20391;-79
2021/11/23 11:22:10;;;;;;;;;;;9.90;90.60;;;;;;5027831;28;19925;-77
2021/11/23 11:24:47;;;;;;;;;;;9.90;90.50;;;;;;5029516;28;19924;-78
2021/11/23 11:27:29;;;;;;;;;;;9.90;90.60;;;;;;5024654;28;19972;-76
2021/11/23 11:30:15;;;;;;;;;;;10.00;90.10;;;;;;5014016;28;19925;-78
2021/11/23 11:32:43;;;;;;;;;;;10.10;89.90;;;;;;5022759;28;19983;-80
2021/11/23 11:35:22;;;;;;;;;;;10.10;89.80;;;;;;5022240;28;19975;-76
2021/11/23 11:37:49;;;;;;;;;;;10.10;87.80;;;;;;5016823;28;19928;-80
2021/11/23 11:40:20;;;;;;;;;;;10.10;88.80;;;;;;5020384;28;19976;-76
2021/11/23 11:42:48;;;;;;;;;;;10.20;89.10;;;;;;5019230;28;19928;-79
2021/11/23 11:45:16;;;;;;;;;;;10.20;89.30;;;;;;5035043;28;19932;-79
2021/11/23 11:47:45;;;;;;;;;;;10.30;89.20;;;;;;5032266;28;19921;-79
2021/11/23 11:50:16;;;;;;;;;;;10.30;89.40;;;;;;5034861;28;20373;-81
2021/11/23 11:53:00;;;;;;;;;;;10.40;89.60;;;;;;5031530;28;19921;-81
2021/11/23 11:55:27;;;;;;;;;;;10.40;89.60;;;;;;5032484;28;19921;-76
2021/11/23 11:57:55;;;;;;;;;;;10.50;89.60;;;;;;5035192;28;19925;-77
2021/11/23 12:00:22;;;;;;;;;;;10.50;87.80;;;;;;5032768;28;19921;-78
2021/11/23 12:02:50;;;;;;;;;;;10.50;87.40;;;;;;5034435;28;20370;-79
2021/11/23 12:05:17;;;;;;;;;;;10.50;86.40;;;;;;5034572;28;19921;-79
2021/11/23 12:07:45;;;;;;;;;;;10.60;86.10;;;;;;5032206;28;19925;-80
2021/11/23 12:10:25;;;;;;;;;;;10.60;86.50;;;;;;5033685;28;19921;-76
2021/11/23 12:12:55;;;;;;;;;;;10.60;87.00;;;;;;5025033;28;19933;-80
2021/11/23 12:15:40;;;;;;;;;;;10.70;87.30;;;;;;5029248;28;19979;-80
2021/11/23 12:18:10;;;;;;;;;;;10.70;85.60;;;;;;5032460;28;19929;-80
2021/11/23 12:20:39;;;;;;;;;;;10.80;86.90;;;;;;5035946;28;20316;-79
2021/11/23 12:23:32;;;;;;;;;;;10.80;86.80;;;;;;5033912;28;19921;-79
2021/11/23 12:26:01;;;;;;;;;;;10.90;85.70;;;;;;5032267;28;20373;-80
2021/11/23 12:28:29;;;;;;;;;;;10.90;85.90;;;;;;5034154;28;20373;-80
2021/11/23 12:30:57;;;;;;;;;;;10.90;85.90;;;;;;5028092;28;19971;-79
2021/11/23 12:33:24;;;;;;;;;;;11.00;86.10;;;;;;5024016;28;20377;-80
2021/11/23 12:35:54;;;;;;;;;;;11.00;86.00;;;;;;5029370;28;19929;-76
2021/11/23 12:38:22;;;;;;;;;;;11.00;86.60;;;;;;5027066;28;19925;-81
2021/11/23 12:40:50;;;;;;;;;;;11.10;86.30;;;;;;5020984;28;19928;-82
2021/11/23 12:43:18;;;;;;;;;;;11.10;87.50;;;;;;5019281;28;19929;-80
2021/11/23 12:45:46;;;;;;;;;;;11.20;86.50;;;;;;5026123;28;19925;-81
2021/11/23 12:48:29;;;;;;;;;;;11.20;86.40;;;;;;5031971;28;19921;-80
2021/11/23 12:50:56;;;;;;;;;;;11.20;86.90;;;;;;5034304;28;20353;-80
2021/11/23 12:53:23;;;;;;;;;;;11.30;87.50;;;;;;5034315;28;19960;-80
2021/11/23 12:55:56;;;;;;;;;;;11.30;87.40;;;;;;5024352;28;19928;-79
2021/11/23 12:58:43;;;;;;;;;;;11.30;86.80;;;;;;5026645;28;19991;-76
2021/11/23 13:01:23;;;;;;;;;;;11.40;87.40;;;;;;5024412;28;19951;-80
2021/11/23 13:03:51;;;;;;;;;;;11.40;84.60;;;;;;5029632;28;20301;-79
2021/11/23 13:06:18;;;;;;;;;;;11.40;86.10;;;;;;5024201;28;19921;-76
2021/11/23 13:09:01;;;;;;;;;;;11.40;85.40;;;;;;5020088;28;20407;-79
2021/11/23 13:11:29;;;;;;;;;;;11.40;83.60;;;;;;5031679;28;20304;-80
2021/11/23 13:14:25;;;;;;;;;;;11.40;82.70;;;;;;5044436;28;19932;-81
2021/11/23 13:16:53;;;;;;;;;;;11.40;82.50;;;;;;5015679;28;20372;-80
2021/11/23 13:19:20;;;;;;;;;;;11.40;81.50;;;;;;5032043;28;20003;-77
2021/11/23 13:21:47;;;;;;;;;;;11.40;82.40;;;;;;5029961;28;19947;-80
2021/11/23 13:24:14;;;;;;;;;;;11.40;83.20;;;;;;5019844;28;19960;-80
2021/11/23 13:26:46;;;;;;;;;;;11.40;83.20;;;;;;5026951;28;19925;-80
2021/11/23 13:29:13;;;;;;;;;;;11.40;82.10;;;;;;5022470;28;19975;-80
2021/11/23 13:31:41;;;;;;;;;;;11.40;80.00;;;;;;5028612;28;19921;-80
2021/11/23 13:34:11;;;;;;;;;;;11.40;80.60;;;;;;5029105;28;20312;-80
2021/11/23 13:36:40;;;;;;;;;;;11.40;78.40;;;;;;5032193;28;20408;-76
2021/11/23 13:39:06;;;;;;;;;;;11.40;78.60;;;;;;5019385;28;20013;-80
2021/11/23 13:41:34;;;;;;;;;;;11.30;75.80;;;;;;5033360;28;19932;-79
2021/11/23 13:44:03;;;;;;;;;;;11.40;78.40;;;;;;5026239;28;20518;-78
2021/11/23 13:46:44;;;;;;;;;;;11.40;75.70;;;;;;5026892;28;19932;-81
2021/11/23 13:49:13;;;;;;;;;;;11.40;77.30;;;;;;5017463;28;19929;-80
2021/11/23 13:51:40;;;;;;;;;;;11.50;78.60;;;;;;5028709;28;19925;-81
2021/11/23 13:54:14;;;;;;;;;;;11.60;79.20;;;;;;5033386;28;20269;-80
2021/11/23 13:56:51;;;;;;;;;;;11.60;80.80;;;;;;5030907;28;19921;-77